• Join FlightAware (Why Join?)
  • Login
  • US Flag 
07:46PM EST


 

Airport Tracker/Info


-or-


 

Live Flight TrackerFlight Track Log ✈ SWA3675 ✈ 09-Aug-2013 ✈ KBWI - KCLT

Flight Track Log - Related Links

Times and Time Zones

All times are in EDT time to prevent confusion due to time zone crossing. See the SWA3675 flight status page for this flight to view local times or setup timezone preferences in your user account.

Time Position Orientation Groundspeed Altitude Reporting Facility
EDT Latitude Longitude Course Direction KTS MPH feet Rate Location/Type
09:29PM 39.1833 -76.7500 284° West 190 219 2,700  Level Potomac TRACON
09:30PM 39.2000 -76.8333 284° West 244 281 5,900 3,094 Climbing Potomac TRACON
09:32PM 39.2119 -76.9764 276° West 261 300 10,900 2,491 Climbing Washington Center
09:33PM 39.2125 -77.0944 270° West 290 334 12,500 2,695 Climbing Washington Center
09:34PM 39.1675 -77.2006 241° Southwest 332 382 16,200 3,126 Climbing Washington Center
09:35PM 39.0789 -77.2708 212° Southwest 327 376 18,700 2,479 Climbing Washington Center
09:36PM 38.9819 -77.3406 209° Southwest 359 413 21,200 2,150 Climbing Washington Center
09:37PM 38.8711 -77.3647 190° South 387 445 23,000 1,700 Climbing Washington Center
09:38PM 38.7519 -77.3886 189° South 410 472 24,600 1,686 Climbing Washington Center
09:39PM 38.6347 -77.4281 195° South 431 496 26,400 1,210 Climbing Washington Center
09:40PM 38.5211 -77.4944 205° Southwest 441 507 27,000 458 Climbing Washington Center
09:41PM 38.3989 -77.5681 205° Southwest 447 514 27,300 496 Climbing Washington Center
09:42PM 38.3197 -77.6825 229° Southwest 428 493 28,000 689 Climbing Washington Center
09:43PM 38.2406 -77.8044 230° Southwest 440 506 28,700 1,261 Climbing Washington Center
09:44PM 38.1631 -77.9264 231° Southwest 445 512 30,500 1,664 Climbing Washington Center
09:45PM 38.0878 -78.0428 231° Southwest 445 512 32,000 738 Climbing Washington Center
09:46PM 38.0253 -78.1356 229° Southwest 445 512 32,000  Level Washington Center
09:47PM 37.9369 -78.2747 231° Southwest 436 502 32,000  Level Washington Center
09:48PM 37.8733 -78.4014 238° Southwest 436 502 32,000  Level Washington Center
09:49PM 37.8100 -78.5278 238° Southwest 436 502 32,000  Level Washington Center
09:50PM 37.7467 -78.6383 234° Southwest 436 502 32,000  Level Washington Center
09:51PM 37.6667 -78.7506 228° Southwest 436 502 32,000  Level Washington Center
09:52PM 37.5742 -78.8514 221° Southwest 436 502 32,000  Level Washington Center
09:53PM 37.4817 -78.9497 220° Southwest 441 507 32,000  Level Washington Center
09:54PM 37.3811 -79.0419 216° Southwest 447 514 32,000  Level Washington Center
09:55PM 37.2719 -79.1414 216° Southwest 447 514 32,000  Level Washington Center
09:56PM 37.1731 -79.2333 217° Southwest 447 514 32,000  Level Washington Center
09:57PM 37.0744 -79.3250 217° Southwest 447 514 32,000  Level Washington Center
09:58PM 36.9714 -79.4161 215° Southwest 447 514 32,000  Level Washington Center
09:59PM 36.8744 -79.5072 217° Southwest 447 514 32,000  Level Washington Center
10:00PM 36.7819 -79.5883 215° Southwest 442 509 32,000 -1,000 Level Washington Center
10:01PM 36.6167 -79.7325 215° Southwest 457 526 29,500 -2,108 Descending Atlanta Center
10:02PM 36.5258 -79.8147 216° Southwest 457 526 26,800 -2,600 Descending Atlanta Center
10:03PM 36.4328 -79.8997 216° Southwest 450 518 24,300 -2,350 Descending Atlanta Center
10:04PM 36.3375 -79.9844 216° Southwest 436 502 22,100 -1,150 Descending Atlanta Center
10:05PM 36.2503 -80.0583 214° Southwest 414 476 22,000 -800 Descending Atlanta Center
10:06PM 36.1569 -80.1403 215° Southwest 394 453 20,500 -1,700 Descending Atlanta Center
10:07PM 36.0717 -80.2111 214° Southwest 376 433 18,600 -1,866 Descending Atlanta Center
10:08PM 35.9967 -80.2814 217° Southwest 350 403 16,800 -1,900 Descending Atlanta Center
10:09PM 35.9172 -80.3492 215° Southwest 340 391 14,800 -1,785 Descending Atlanta Center
10:10PM 35.8419 -80.4089 213° Southwest 347 399 13,200 -900 Descending Atlanta Center
10:11PM 35.7667 -80.4789 217° Southwest 347 399 13,000 -950 Descending Atlanta Center
10:12PM 35.7067 -80.5683 230° Southwest 340 391 11,300 -1,500 Descending Atlanta Center
10:13PM 35.6358 -80.6428 221° Southwest 335 386 10,000 -1,200 Descending Atlanta Center
10:14PM 35.5811 -80.7014 221° Southwest 318 366 8,900 -1,511 Descending Atlanta Center
10:15PM 35.5103 -80.7808 222° Southwest 277 319 6,700 -1,650 Descending Atlanta Center
10:16PM 35.4675 -80.8233 219° Southwest 281 323 5,600 -1,486 Descending Atlanta Center
10:17PM 35.4128 -80.8839 222° Southwest 275 316 4,000 -1,128 Descending Atlanta Center
10:18PM 35.3414 -80.9453 215° Southwest 222 255 3,100 -851 Descending Atlanta Center
10:19PM 35.2956 -80.9469 182° South 153 176 2,100 -836 Descending Atlanta Center
10:20PM 35.2558 -80.9433 176° South 133 153 1,400 -689 Descending Atlanta Center
10:22PM 35.2137 -80.9491 202° Southwest  Level Estimated
10:29PM 35.2137 -80.9491 202° Southwest  Level Estimated